Time;durP1;ratioP1;P1;durP2;ratioP2;P2;SDS_P1;SDS_P2;PMS_P1;PMS_P2;Temp;Humidity;BMP_temperature;BMP_pressure;BME280_temperature;BME280_humidity;BME280_pressure;Samples;Min_cycle;Max_cycle;Signal;HPM_P1;HPM_P2
2023/05/02 00:02:25;;;;;;;7.22;5.10;;;9.60;99.90;;;;;;5044304;28;20057;-59
2023/05/02 00:04:52;;;;;;;8.43;4.57;;;9.60;99.90;;;;;;5027832;28;20048;-61
2023/05/02 00:07:20;;;;;;;7.65;4.82;;;9.70;99.90;;;;;;5044023;28;20049;-60
2023/05/02 00:09:48;;;;;;;7.82;5.10;;;9.70;99.90;;;;;;5044936;28;20052;-59
2023/05/02 00:12:15;;;;;;;9.02;5.40;;;9.70;99.90;;;;;;5049220;28;20078;-61
2023/05/02 00:14:43;;;;;;;8.88;5.50;;;9.70;99.90;;;;;;5038456;28;20055;-62
2023/05/02 00:17:18;;;;;;;8.73;5.63;;;9.70;99.90;;;;;;5039457;28;20052;-61
2023/05/02 00:19:46;;;;;;;6.82;4.63;;;9.80;99.90;;;;;;5019855;28;20042;-60
2023/05/02 00:22:14;;;;;;;8.43;5.25;;;9.80;99.90;;;;;;5040847;28;20053;-60
2023/05/02 00:24:42;;;;;;;10.95;6.28;;;9.80;99.90;;;;;;5045460;28;20037;-58
2023/05/02 00:27:09;;;;;;;11.93;6.45;;;9.80;99.90;;;;;;5041940;28;20044;-59
2023/05/02 00:29:37;;;;;;;11.57;6.30;;;9.80;99.90;;;;;;5032113;28;20041;-59
2023/05/02 00:32:05;;;;;;;9.20;5.93;;;9.80;99.90;;;;;;5028220;28;20041;-61
2023/05/02 00:34:33;;;;;;;12.73;6.07;;;9.90;99.90;;;;;;5026948;28;20045;-60
2023/05/02 00:37:05;;;;;;;8.48;6.10;;;12.60;99.90;;;;;;5040512;28;20044;-61
2023/05/02 00:39:36;;;;;;;7.85;5.45;;;9.90;99.90;;;;;;5030446;28;20048;-61
2023/05/02 00:42:04;;;;;;;10.98;6.18;;;10.00;99.90;;;;;;5028362;28;20044;-60
2023/05/02 00:44:33;;;;;;;10.02;5.60;;;10.00;99.90;;;;;;4991086;28;20132;-61
2023/05/02 00:47:01;;;;;;;11.23;5.95;;;10.00;99.90;;;;;;5023519;28;20047;-60
2023/05/02 00:49:30;;;;;;;11.25;5.72;;;10.00;99.90;;;;;;5028763;28;20057;-60
2023/05/02 00:51:58;;;;;;;12.02;6.05;;;10.00;99.90;;;;;;5044926;28;20052;-59
2023/05/02 00:54:25;;;;;;;9.13;5.65;;;10.00;99.90;;;;;;5030426;28;20052;-60
2023/05/02 00:56:53;;;;;;;10.35;5.88;;;10.00;99.90;;;;;;5030029;28;20052;-60
2023/05/02 00:59:21;;;;;;;12.73;6.88;;;10.00;99.90;;;;;;5012196;28;20041;-61
2023/05/02 01:02:14;;;;;;;8.75;5.43;;;10.00;99.90;;;;;;5025720;28;20052;-61
2023/05/02 01:05:03;;;;;;;8.55;5.63;;;10.00;99.90;;;;;;5030569;28;20512;-60
2023/05/02 01:07:43;;;;;;;10.85;5.55;;;10.00;99.90;;;;;;5025948;28;20063;-60
2023/05/02 01:10:28;;;;;;;10.40;5.80;;;10.10;99.90;;;;;;5028361;28;20042;-60
2023/05/02 01:13:27;;;;;;;10.93;4.90;;;10.10;99.90;;;;;;5012537;28;20077;-61
2023/05/02 01:15:57;;;;;;;10.55;5.40;;;10.10;99.90;;;;;;5022966;28;20056;-61
2023/05/02 01:18:29;;;;;;;10.57;6.13;;;10.10;99.90;;;;;;5023539;28;20037;-61
2023/05/02 01:21:02;;;;;;;12.55;6.00;;;10.10;99.90;;;;;;5022725;28;20045;-60
2023/05/02 01:23:39;;;;;;;8.55;5.80;;;10.10;99.90;;;;;;5044434;28;20225;-60
2023/05/02 01:26:16;;;;;;;8.63;5.30;;;10.10;99.90;;;;;;5029334;28;20044;-59
2023/05/02 01:29:02;;;;;;;10.75;5.88;;;10.10;99.90;;;;;;5016161;28;20045;-60
2023/05/02 01:31:36;;;;;;;10.77;6.80;;;10.10;99.90;;;;;;5039008;28;20060;-58
2023/05/02 01:34:08;;;;;;;11.75;6.15;;;10.10;99.90;;;;;;5030071;28;20060;-60
2023/05/02 01:36:42;;;;;;;12.30;6.15;;;10.10;99.90;;;;;;5034264;28;20050;-59
2023/05/02 01:39:14;;;;;;;14.73;7.68;;;10.10;99.90;;;;;;5026928;28;20059;-59
2023/05/02 01:41:43;;;;;;;10.90;6.72;;;10.10;99.90;;;;;;5047016;28;20052;-59
2023/05/02 01:44:12;;;;;;;14.18;7.10;;;10.20;99.90;;;;;;5032821;28;20044;-59
2023/05/02 01:46:41;;;;;;;10.63;6.15;;;10.20;99.90;;;;;;5045969;28;20086;-59
2023/05/02 01:49:10;;;;;;;11.18;6.13;;;10.10;99.90;;;;;;5046961;28;20045;-60
2023/05/02 01:51:44;;;;;;;15.02;8.70;;;10.20;99.90;;;;;;5032993;28;20051;-60
2023/05/02 01:54:14;;;;;;;9.68;6.88;;;10.20;99.90;;;;;;5068984;28;20055;-59
2023/05/02 01:56:43;;;;;;;14.20;8.20;;;10.20;99.90;;;;;;5071070;28;20052;-59
2023/05/02 01:59:14;;;;;;;15.65;8.35;;;10.20;99.90;;;;;;5067490;28;20051;-60
2023/05/02 02:01:43;;;;;;;13.05;7.97;;;10.20;99.90;;;;;;5070251;28;20071;-59
2023/05/02 02:04:14;;;;;;;10.73;7.25;;;10.20;99.90;;;;;;5067572;28;20490;-59
2023/05/02 02:06:50;;;;;;;12.68;7.93;;;10.20;99.90;;;;;;5067790;28;20051;-60
2023/05/02 02:09:19;;;;;;;12.23;7.28;;;10.30;99.90;;;;;;5065768;28;20044;-60
2023/05/02 02:11:52;;;;;;;15.32;8.70;;;10.20;99.90;;;;;;5051497;28;20037;-58
2023/05/02 02:14:24;;;;;;;23.63;9.85;;;10.30;99.90;;;;;;5065193;28;20047;-60
2023/05/02 02:17:00;;;;;;;15.38;9.13;;;10.30;99.90;;;;;;5066096;28;20499;-63
2023/05/02 02:19:29;;;;;;;17.45;9.15;;;10.30;99.90;;;;;;5064460;28;20044;-60
2023/05/02 02:21:59;;;;;;;15.93;8.88;;;10.30;99.90;;;;;;5071367;28;20044;-60
2023/05/02 02:24:27;;;;;;;21.40;10.68;;;10.20;99.90;;;;;;5073732;28;20048;-60
2023/05/02 02:26:55;;;;;;;17.65;9.20;;;10.30;99.90;;;;;;5071651;28;20041;-59
2023/05/02 02:29:22;;;;;;;15.15;9.73;;;10.30;99.90;;;;;;5069765;28;20052;-60
2023/05/02 02:31:50;;;;;;;23.70;12.05;;;10.30;99.90;;;;;;5062349;28;20045;-60
2023/05/02 02:34:18;;;;;;;26.17;12.63;;;10.30;99.90;;;;;;5064178;28;20043;-58
2023/05/02 02:37:13;;;;;;;20.30;12.07;;;10.30;99.90;;;;;;5073776;28;20420;-59
2023/05/02 02:40:03;;;;;;;26.25;12.40;;;10.30;99.90;;;;;;5074571;28;20048;-59
2023/05/02 02:43:06;;;;;;;22.67;11.95;;;10.20;99.90;;;;;;5074548;28;20536;-59
2023/05/02 02:46:16;;;;;;;25.50;13.30;;;10.30;99.90;;;;;;5073770;28;20048;-62
2023/05/02 02:48:53;;;;;;;28.00;12.75;;;10.30;99.90;;;;;;5016456;28;20072;-60
2023/05/02 02:51:44;;;;;;;21.70;12.63;;;10.20;99.90;;;;;;5061992;28;20041;-60
2023/05/02 02:54:43;;;;;;;22.88;12.63;;;10.30;99.90;;;;;;5052640;28;20049;-60
2023/05/02 02:57:17;;;;;;;27.30;11.95;;;10.30;99.90;;;;;;5044875;28;20499;-61
2023/05/02 03:00:02;;;;;;;25.50;12.93;;;10.30;99.90;;;;;;5053303;28;20056;-59
2023/05/02 03:02:32;;;;;;;21.95;11.98;;;10.30;99.90;;;;;;5053336;28;20060;-62
2023/05/02 03:05:03;;;;;;;23.05;11.57;;;10.30;99.90;;;;;;5033956;28;20489;-60
2023/05/02 03:07:31;;;;;;;22.52;11.05;;;10.20;99.90;;;;;;5039402;28;20033;-60
2023/05/02 03:10:05;;;;;;;20.42;10.88;;;10.20;99.90;;;;;;5033573;28;20060;-59
2023/05/02 03:12:34;;;;;;;21.52;12.13;;;10.10;99.90;;;;;;5032051;28;20045;-59
2023/05/02 03:15:23;;;;;;;23.10;12.43;;;10.10;99.90;;;;;;5035989;28;20048;-60
2023/05/02 03:17:51;;;;;;;26.65;11.10;;;10.10;99.90;;;;;;5032407;28;20052;-58
2023/05/02 03:20:19;;;;;;;19.80;11.20;;;10.10;99.90;;;;;;5053116;28;20040;-59
2023/05/02 03:22:47;;;;;;;28.67;11.60;;;10.10;99.90;;;;;;5030619;28;20045;-58
2023/05/02 03:25:15;;;;;;;27.23;13.27;;;10.00;99.90;;;;;;5024733;28;20070;-59
2023/05/02 03:27:46;;;;;;;24.42;12.30;;;10.00;99.90;;;;;;5053020;28;20037;-59
2023/05/02 03:30:14;;;;;;;24.23;10.70;;;10.00;99.90;;;;;;5047924;28;20538;-58
2023/05/02 03:32:42;;;;;;;21.35;10.50;;;9.90;99.90;;;;;;5018670;28;20489;-60
2023/05/02 03:35:10;;;;;;;23.35;11.95;;;9.90;99.90;;;;;;5035150;28;20037;-60
2023/05/02 03:37:42;;;;;;;23.40;11.18;;;9.90;99.90;;;;;;5034653;28;20041;-59
2023/05/02 03:40:10;;;;;;;24.48;11.18;;;9.90;99.90;;;;;;5023696;28;20040;-60
2023/05/02 03:42:40;;;;;;;21.85;10.95;;;9.90;99.90;;;;;;5023179;28;20037;-60
2023/05/02 03:45:19;;;;;;;25.02;10.88;;;9.90;99.90;;;;;;5035878;28;20052;-60
2023/05/02 03:47:48;;;;;;;26.75;11.02;;;9.90;99.90;;;;;;5026538;28;20050;-59
2023/05/02 03:50:16;;;;;;;21.40;10.15;;;9.90;99.90;;;;;;5010262;28;20493;-59
2023/05/02 03:52:46;;;;;;;22.35;10.65;;;9.80;99.90;;;;;;5013073;28;20046;-60
2023/05/02 03:55:17;;;;;;;25.05;9.95;;;9.80;99.90;;;;;;5033370;28;20041;-59
2023/05/02 03:57:46;;;;;;;21.33;10.55;;;9.80;99.90;;;;;;5026685;28;20049;-59
2023/05/02 04:00:14;;;;;;;23.77;9.80;;;9.80;99.90;;;;;;5031690;28;20541;-59
2023/05/02 04:02:49;;;;;;;22.05;10.75;;;9.80;99.90;;;;;;5011566;28;20052;-58
2023/05/02 04:05:20;;;;;;;20.13;9.30;;;9.80;99.90;;;;;;5025879;28;20032;-59
2023/05/02 04:07:50;;;;;;;24.35;9.75;;;9.80;99.90;;;;;;5026517;28;20068;-60
2023/05/02 04:10:18;;;;;;;30.83;10.52;;;9.70;99.90;;;;;;5038803;28;20052;-60
2023/05/02 04:12:52;;;;;;;31.02;11.23;;;9.70;99.90;;;;;;5030206;28;20639;-58
2023/05/02 04:15:20;;;;;;;29.58;11.10;;;9.70;99.90;;;;;;5020097;28;20053;-58
2023/05/02 04:17:50;;;;;;;22.80;10.35;;;9.70;99.90;;;;;;5033917;28;20049;-59
2023/05/02 04:20:19;;;;;;;22.98;10.55;;;9.70;99.90;;;;;;5034268;28;20044;-59
2023/05/02 04:22:50;;;;;;;25.42;11.35;;;9.80;99.90;;;;;;5010227;28;20052;-59
2023/05/02 04:25:18;;;;;;;26.88;11.70;;;9.70;99.90;;;;;;5027162;28;20049;-59
2023/05/02 04:27:46;;;;;;;19.80;10.65;;;9.70;99.90;;;;;;5027027;28;20045;-59
2023/05/02 04:30:17;;;;;;;23.58;11.25;;;9.70;99.90;;;;;;4999487;28;20747;-59
2023/05/02 04:32:54;;;;;;;29.10;12.10;;;9.70;99.90;;;;;;5015065;28;20064;-59
2023/05/02 04:35:22;;;;;;;34.47;11.73;;;9.70;99.90;;;;;;5017633;28;20401;-59
2023/05/02 04:37:50;;;;;;;24.35;10.65;;;9.70;99.90;;;;;;5023826;28;20534;-59
2023/05/02 04:40:18;;;;;;;29.98;11.55;;;9.70;99.90;;;;;;5017617;28;20038;-58
2023/05/02 04:42:49;;;;;;;27.58;10.93;;;9.70;99.90;;;;;;5032438;28;20052;-59
2023/05/02 04:45:20;;;;;;;23.63;10.85;;;9.70;99.90;;;;;;5017817;28;20041;-58
2023/05/02 04:47:49;;;;;;;29.83;10.88;;;9.60;99.90;;;;;;5011500;28;20045;-58
2023/05/02 04:50:17;;;;;;;23.65;10.45;;;9.60;99.90;;;;;;5021481;28;20053;-59
2023/05/02 04:52:45;;;;;;;25.33;10.82;;;9.60;99.90;;;;;;5056444;28;20053;-58
2023/05/02 04:55:13;;;;;;;24.85;11.07;;;9.60;99.90;;;;;;5051975;28;20036;-59
2023/05/02 04:57:41;;;;;;;31.20;11.80;;;;;;;;;;5065097;28;20047;-60
2023/05/02 05:00:13;;;;;;;28.25;10.93;;;9.60;99.90;;;;;;5065678;28;20066;-59
2023/05/02 05:02:41;;;;;;;25.73;10.73;;;9.60;99.90;;;;;;5057124;28;20037;-59
2023/05/02 05:05:12;;;;;;;25.17;10.55;;;9.60;99.90;;;;;;5054978;28;20033;-61
2023/05/02 05:07:40;;;;;;;28.98;11.13;;;9.60;99.90;;;;;;5057000;28;20415;-60
2023/05/02 05:10:11;;;;;;;24.38;10.60;;;9.60;99.90;;;;;;5061203;28;20063;-62
2023/05/02 05:12:46;;;;;;;29.42;10.40;;;9.60;99.90;;;;;;5051521;28;20072;-60
2023/05/02 05:15:15;;;;;;;28.37;13.50;;;9.60;99.90;;;;;;5056522;28;20044;-63
2023/05/02 05:17:49;;;;;;;25.35;10.50;;;9.60;99.90;;;;;;5058283;28;20044;-60
2023/05/02 05:20:17;;;;;;;26.58;10.35;;;9.60;99.90;;;;;;5062666;28;20389;-59
2023/05/02 05:22:44;;;;;;;27.40;11.27;;;9.50;99.90;;;;;;5064445;28;20052;-59
2023/05/02 05:25:14;;;;;;;21.48;10.57;;;9.50;99.90;;;;;;5066936;28;20044;-61
2023/05/02 05:27:44;;;;;;;27.55;11.32;;;9.60;99.90;;;;;;5065896;28;20037;-61
2023/05/02 05:30:12;;;;;;;26.58;10.20;;;9.50;99.90;;;;;;5065512;28;20045;-61
2023/05/02 05:32:41;;;;;;;18.63;9.73;;;9.60;99.90;;;;;;5060634;28;20053;-61
2023/05/02 05:35:10;;;;;;;24.88;9.73;;;9.50;99.90;;;;;;5053438;28;20063;-62
2023/05/02 05:37:47;;;;;;;24.48;10.05;;;9.60;99.90;;;;;;5062647;28;20413;-60
2023/05/02 05:40:17;;;;;;;22.60;9.48;;;9.60;99.90;;;;;;5046900;28;20048;-60
2023/05/02 05:42:51;;;;;;;28.70;8.57;;;9.50;99.90;;;;;;5056977;28;20045;-59
2023/05/02 05:45:24;;;;;;;21.60;9.50;;;9.50;99.90;;;;;;5041682;28;20290;-64
2023/05/02 05:47:54;;;;;;;23.92;9.02;;;9.50;99.90;;;;;;5066811;28;20071;-60
2023/05/02 05:50:26;;;;;;;25.05;8.93;;;;;;;;;;5049666;28;20044;-59
2023/05/02 05:52:54;;;;;;;20.57;8.43;;;9.40;99.90;;;;;;5022868;28;20045;-59
2023/05/02 05:55:21;;;;;;;27.25;10.60;;;9.40;99.90;;;;;;5022237;28;20302;-59
2023/05/02 05:57:49;;;;;;;30.40;10.90;;;9.30;99.90;;;;;;5047772;28;20048;-59
2023/05/02 06:00:18;;;;;;;20.80;9.30;;;9.30;99.90;;;;;;5024485;28;20040;-59
2023/05/02 06:02:50;;;;;;;25.02;10.35;;;9.30;99.90;;;;;;5038084;28;20251;-61
2023/05/02 06:05:25;;;;;;;21.33;7.70;;;9.40;99.90;;;;;;5023976;28;20041;-60
2023/05/02 06:07:53;;;;;;;22.50;9.05;;;9.40;99.90;;;;;;5026992;28;20037;-60
2023/05/02 06:10:21;;;;;;;25.95;7.60;;;9.40;99.90;;;;;;5036974;28;20056;-60
2023/05/02 06:12:49;;;;;;;20.27;7.10;;;9.50;99.90;;;;;;5026420;28;20539;-60
2023/05/02 06:15:20;;;;;;;21.45;7.53;;;9.50;99.90;;;;;;5003197;28;20060;-60
2023/05/02 06:17:51;;;;;;;17.83;7.30;;;9.60;99.90;;;;;;5024968;28;20646;-59
2023/05/02 06:20:19;;;;;;;14.70;6.63;;;9.60;99.90;;;;;;5016662;28;20052;-59
2023/05/02 06:22:47;;;;;;;18.52;5.82;;;9.70;99.90;;;;;;5043506;28;20045;-60
2023/05/02 06:25:15;;;;;;;16.48;6.95;;;9.70;99.90;;;;;;5046399;28;20049;-60
2023/05/02 06:27:43;;;;;;;16.65;5.93;;;9.80;99.90;;;;;;5011936;28;20034;-62
2023/05/02 06:30:11;;;;;;;14.23;6.47;;;9.80;99.90;;;;;;5016935;28;20041;-59
2023/05/02 06:32:41;;;;;;;16.35;6.18;;;;;;;;;;5034594;28;20049;-61
2023/05/02 06:35:10;;;;;;;16.38;6.82;;;9.80;99.90;;;;;;5042347;28;20045;-60
2023/05/02 06:37:38;;;;;;;13.93;5.57;;;9.80;99.90;;;;;;5043534;28;20044;-59
2023/05/02 06:40:06;;;;;;;12.68;6.82;;;9.90;99.90;;;;;;5030113;28;20037;-62
2023/05/02 06:42:33;;;;;;;19.25;6.97;;;9.90;99.90;;;;;;5042271;28;20056;-61
2023/05/02 06:45:01;;;;;;;13.35;5.93;;;9.90;99.90;;;;;;5044296;28;20045;-60
2023/05/02 06:47:35;;;;;;;14.63;5.90;;;10.00;99.90;;;;;;5043877;28;20048;-60
2023/05/02 06:50:03;;;;;;;21.92;7.32;;;9.90;99.90;;;;;;5032860;28;20046;-59
2023/05/02 06:52:30;;;;;;;20.02;6.70;;;10.00;99.90;;;;;;5043094;28;20377;-60
2023/05/02 06:55:00;;;;;;;16.77;6.82;;;10.00;99.90;;;;;;5027793;28;20052;-60
2023/05/02 06:57:29;;;;;;;15.55;7.10;;;12.70;99.90;;;;;;5044648;28;20060;-60
2023/05/02 06:59:57;;;;;;;19.30;7.80;;;9.90;99.90;;;;;;5047368;28;20045;-59
2023/05/02 07:02:25;;;;;;;15.50;7.63;;;10.00;99.90;;;;;;5032650;28;20046;-61
2023/05/02 07:04:53;;;;;;;16.23;8.32;;;10.00;99.90;;;;;;5020452;28;20091;-60
2023/05/02 07:07:21;;;;;;;17.10;6.68;;;10.10;99.90;;;;;;5013130;28;20059;-59
2023/05/02 07:09:49;;;;;;;11.15;5.70;;;10.00;99.90;;;;;;5031267;28;20056;-60
2023/05/02 07:12:17;;;;;;;13.43;6.32;;;10.00;99.90;;;;;;5037645;28;20041;-60
2023/05/02 07:14:45;;;;;;;14.32;6.63;;;10.00;99.90;;;;;;5046975;28;20059;-60
2023/05/02 07:17:14;;;;;;;16.08;7.43;;;10.00;99.90;;;;;;5047376;28;20052;-62
2023/05/02 07:19:42;;;;;;;13.93;6.45;;;9.90;99.90;;;;;;5044190;28;20045;-60
2023/05/02 07:22:12;;;;;;;16.20;7.55;;;10.00;99.90;;;;;;5044302;28;20056;-61
2023/05/02 07:24:40;;;;;;;13.45;6.95;;;10.00;99.90;;;;;;5045419;28;20514;-59
2023/05/02 07:27:09;;;;;;;18.23;7.32;;;10.00;99.90;;;;;;5032030;28;20068;-60
2023/05/02 07:29:37;;;;;;;15.48;7.13;;;10.10;99.90;;;;;;5045729;28;20057;-59
2023/05/02 07:32:05;;;;;;;21.70;8.23;;;10.20;99.90;;;;;;5031425;28;20049;-61
2023/05/02 07:34:33;;;;;;;20.52;7.38;;;10.10;99.90;;;;;;5017473;28;20049;-59
2023/05/02 07:37:01;;;;;;;14.88;7.78;;;10.10;99.90;;;;;;5037113;28;20053;-59
2023/05/02 07:39:35;;;;;;;19.48;8.52;;;10.10;99.90;;;;;;5038177;28;20049;-59
2023/05/02 07:42:02;;;;;;;14.15;7.15;;;10.00;99.90;;;;;;5013006;28;20046;-61
2023/05/02 07:44:32;;;;;;;13.90;8.07;;;10.00;99.90;;;;;;5021840;28;20056;-58
2023/05/02 07:46:59;;;;;;;15.85;8.00;;;10.00;99.90;;;;;;5049666;28;20072;-59
2023/05/02 07:49:28;;;;;;;14.80;7.60;;;10.00;99.90;;;;;;5030335;28;20481;-60
2023/05/02 07:51:55;;;;;;;23.15;8.70;;;10.10;99.90;;;;;;5044148;28;20052;-61
2023/05/02 07:54:26;;;;;;;17.42;8.77;;;10.00;99.90;;;;;;5034940;28;20046;-60
2023/05/02 07:57:00;;;;;;;20.65;9.10;;;10.10;99.90;;;;;;5031385;28;22121;-59
2023/05/02 07:59:30;;;;;;;19.17;8.75;;;10.10;99.90;;;;;;5012477;28;20049;-59
2023/05/02 08:01:58;;;;;;;20.10;9.48;;;10.10;99.90;;;;;;5030247;28;20045;-60
2023/05/02 08:04:25;;;;;;;20.25;8.65;;;10.10;99.90;;;;;;5039366;28;21130;-62
2023/05/02 08:06:54;;;;;;;18.58;8.55;;;10.20;99.90;;;;;;5030067;28;20049;-63
2023/05/02 08:09:22;;;;;;;16.48;7.00;;;10.20;99.90;;;;;;5036557;28;20048;-59
2023/05/02 08:11:50;;;;;;;17.63;7.07;;;10.30;99.90;;;;;;5029745;28;20042;-60
2023/05/02 08:14:21;;;;;;;15.70;6.07;;;10.40;99.90;;;;;;5023064;28;20037;-59
2023/05/02 08:16:48;;;;;;;15.88;6.43;;;10.50;99.90;;;;;;5028734;28;20052;-60
2023/05/02 08:19:16;;;;;;;12.18;4.47;;;10.50;99.90;;;;;;5049012;28;20405;-59
2023/05/02 08:21:44;;;;;;;12.45;4.20;;;10.60;99.90;;;;;;5048221;28;20534;-61
2023/05/02 08:24:11;;;;;;;9.20;5.07;;;10.70;99.90;;;;;;5045052;28;20045;-59
2023/05/02 08:26:39;;;;;;;8.65;5.18;;;10.90;99.90;;;;;;5048776;28;20045;-60
2023/05/02 08:29:07;;;;;;;15.40;4.53;;;10.90;99.90;;;;;;5039370;28;20037;-59
2023/05/02 08:31:34;;;;;;;9.48;4.68;;;11.00;99.90;;;;;;5029327;28;20214;-59
2023/05/02 08:34:05;;;;;;;12.40;4.30;;;11.10;99.90;;;;;;5044688;28;20206;-59
2023/05/02 08:36:33;;;;;;;10.88;4.63;;;11.10;99.90;;;;;;5049566;28;20397;-59
2023/05/02 08:39:02;;;;;;;10.40;4.78;;;11.10;99.90;;;;;;5024136;28;20045;-59
2023/05/02 08:41:30;;;;;;;14.55;4.45;;;11.20;99.90;;;;;;5029365;28;20042;-60
2023/05/02 08:43:58;;;;;;;13.25;4.78;;;11.20;99.90;;;;;;5025427;28;20053;-59
2023/05/02 08:46:27;;;;;;;10.00;4.20;;;11.20;99.90;;;;;;5045863;28;20059;-59
2023/05/02 08:48:57;;;;;;;11.27;4.03;;;11.30;99.90;;;;;;5013852;28;20038;-60
2023/05/02 08:51:28;;;;;;;10.07;3.85;;;11.30;99.90;;;;;;5040836;28;20393;-60
2023/05/02 08:53:57;;;;;;;10.18;4.22;;;11.40;99.90;;;;;;5066141;28;20055;-60
2023/05/02 08:56:25;;;;;;;9.82;4.15;;;11.50;99.90;;;;;;5064225;28;20480;-60
2023/05/02 08:58:55;;;;;;;12.60;4.78;;;11.50;99.90;;;;;;5059124;28;20045;-61
2023/05/02 09:01:27;;;;;;;16.52;4.50;;;11.60;99.90;;;;;;5068086;28;20044;-59
2023/05/02 09:03:58;;;;;;;14.02;4.82;;;11.60;99.90;;;;;;5057453;28;20051;-59
2023/05/02 09:06:27;;;;;;;6.88;4.28;;;11.60;99.90;;;;;;5065948;28;20040;-59
2023/05/02 09:08:58;;;;;;;15.65;4.85;;;11.60;99.90;;;;;;5064027;28;20055;-61
2023/05/02 09:11:27;;;;;;;16.77;4.57;;;11.60;99.90;;;;;;5031915;28;20060;-59
2023/05/02 09:13:57;;;;;;;12.27;4.30;;;11.70;99.90;;;;;;5048550;28;20056;-60
2023/05/02 09:16:25;;;;;;;9.77;4.03;;;11.70;99.90;;;;;;5048597;28;20049;-59
2023/05/02 09:18:55;;;;;;;16.58;4.80;;;11.80;99.90;;;;;;5060924;28;20053;-58
2023/05/02 09:21:24;;;;;;;;;;;11.80;99.90;;;;;;5064657;28;20068;-60
2023/05/02 09:23:57;;;;;;;10.75;5.20;;;11.90;99.90;;;;;;5038500;28;19927;-59
2023/05/02 09:26:32;;;;;;;11.90;5.05;;;12.00;99.90;;;;;;5030565;28;20493;-60
2023/05/02 09:29:02;;;;;;;12.57;5.22;;;12.00;99.90;;;;;;5060535;28;20041;-60
2023/05/02 09:31:33;;;;;;;;;;;12.10;99.90;;;;;;5067099;28;20048;-59
2023/05/02 09:34:14;;;;;;;21.27;7.20;;;12.20;99.90;;;;;;5048370;28;20212;-59
2023/05/02 09:36:50;;;;;;;14.20;6.25;;;12.20;99.90;;;;;;5062749;28;20044;-59
2023/05/02 09:39:22;;;;;;;13.52;5.88;;;12.20;99.90;;;;;;5060481;28;21327;-59
2023/05/02 09:41:53;;;;;;;15.55;5.80;;;12.30;99.90;;;;;;5030398;28;20063;-60
2023/05/02 09:44:26;;;;;;;9.07;5.30;;;12.40;99.90;;;;;;5028548;28;20051;-59
2023/05/02 09:46:56;;;;;;;14.70;6.22;;;12.40;99.90;;;;;;5034108;28;20094;-59
2023/05/02 09:49:43;;;;;;;11.00;5.07;;;12.40;99.90;;;;;;5066144;28;20041;-59
2023/05/02 09:52:14;;;;;;;18.02;4.93;;;12.40;99.90;;;;;;5046193;28;20069;-59
2023/05/02 09:54:42;;;;;;;10.80;5.05;;;12.40;99.90;;;;;;5046530;28;20048;-61
2023/05/02 09:57:10;;;;;;;10.48;5.07;;;12.40;99.90;;;;;;5039864;28;20401;-60
2023/05/02 09:59:39;;;;;;;10.15;4.60;;;12.40;99.90;;;;;;5028487;28;20112;-60
2023/05/02 10:02:10;;;;;;;10.88;5.30;;;12.40;99.90;;;;;;5028018;28;20053;-58
2023/05/02 10:04:38;;;;;;;11.02;5.30;;;12.40;99.90;;;;;;5033651;28;20056;-60
2023/05/02 10:07:09;;;;;;;11.48;4.97;;;12.50;99.90;;;;;;5029732;28;20037;-61
2023/05/02 10:09:44;;;;;;;12.77;4.35;;;12.60;99.90;;;;;;5043833;28;20083;-59
2023/05/02 10:12:25;;;;;;;13.00;4.53;;;12.70;99.90;;;;;;5048212;28;20045;-58
2023/05/02 10:15:00;;;;;;;13.98;4.72;;;12.80;99.90;;;;;;5029440;28;20371;-60
2023/05/02 10:17:38;;;;;;;8.52;4.05;;;13.00;99.90;;;;;;5030909;28;20642;-60
2023/05/02 10:20:09;;;;;;;14.55;4.38;;;13.10;99.90;;;;;;5041977;28;20042;-60
2023/05/02 10:22:39;;;;;;;12.27;4.55;;;13.30;99.90;;;;;;5030382;28;20048;-60
2023/05/02 10:25:07;;;;;;;9.52;4.35;;;13.40;99.90;;;;;;5032748;28;20041;-59
2023/05/02 10:27:36;;;;;;;15.55;3.95;;;13.50;99.90;;;;;;5047854;28;20063;-60
2023/05/02 10:30:05;;;;;;;12.10;5.83;;;13.60;99.90;;;;;;5039606;28;20053;-59
2023/05/02 10:32:34;;;;;;;15.73;4.40;;;13.80;99.90;;;;;;5025290;28;20052;-60
2023/05/02 10:35:07;;;;;;;16.27;5.22;;;13.80;99.90;;;;;;5047498;28;20067;-60
2023/05/02 10:37:37;;;;;;;12.48;4.18;;;13.80;99.90;;;;;;5047705;28;20431;-60
2023/05/02 10:40:09;;;;;;;8.20;3.33;;;14.00;99.90;;;;;;5026389;28;20625;-61
2023/05/02 10:42:42;;;;;;;6.28;3.63;;;14.00;99.90;;;;;;5051587;28;20527;-62
2023/05/02 10:45:29;;;;;;;9.52;3.72;;;14.20;99.90;;;;;;5034684;28;20041;-60
2023/05/02 10:48:21;;;;;;;14.25;3.53;;;14.30;99.90;;;;;;5021049;28;20515;-61
2023/05/02 10:50:53;;;;;;;9.77;3.17;;;14.40;99.90;;;;;;5048643;28;20052;-60
2023/05/02 10:53:43;;;;;;;9.68;4.28;;;14.60;99.90;;;;;;5028174;28;20053;-62
2023/05/02 10:56:17;;;;;;;8.57;3.80;;;14.70;99.90;;;;;;5023612;28;20072;-61
2023/05/02 10:58:47;;;;;;;7.60;3.80;;;14.80;99.90;;;;;;5050032;28;20052;-59
2023/05/02 11:01:27;;;;;;;7.47;3.30;;;14.90;99.90;;;;;;5044170;28;20049;-61
2023/05/02 11:04:01;;;;;;;8.70;3.38;;;15.00;99.90;;;;;;5040817;28;20045;-61
2023/05/02 11:06:36;;;;;;;7.10;4.07;;;15.10;99.90;;;;;;5034458;28;20064;-61
2023/05/02 11:09:19;;;;;;;8.23;3.78;;;15.10;99.90;;;;;;5043925;28;20055;-60
2023/05/02 11:11:48;;;;;;;6.18;3.30;;;15.10;99.90;;;;;;5035754;28;20060;-60
2023/05/02 11:14:25;;;;;;;12.45;3.72;;;15.20;99.90;;;;;;5050921;28;20037;-61
2023/05/02 11:17:05;;;;;;;15.70;4.28;;;15.30;99.90;;;;;;5050826;28;20377;-60
2023/05/02 11:19:45;;;;;;;12.57;3.72;;;15.50;99.90;;;;;;5036296;28;20308;-58
2023/05/02 11:22:19;;;;;;;9.77;3.13;;;15.50;99.90;;;;;;5050911;28;20049;-62
2023/05/02 11:24:48;;;;;;;9.35;3.03;;;15.50;99.90;;;;;;5050379;28;20052;-59
2023/05/02 11:27:32;;;;;;;9.05;3.17;;;15.70;99.90;;;;;;5050196;28;20041;-60
2023/05/02 11:30:00;;;;;;;7.88;3.22;;;15.70;99.90;;;;;;5048671;28;20044;-61
2023/05/02 11:32:48;;;;;;;6.22;2.70;;;15.90;99.90;;;;;;5032686;28;20061;-62
2023/05/02 11:35:21;;;;;;;10.75;3.10;;;15.90;99.90;;;;;;5033103;28;20045;-60
2023/05/02 11:37:53;;;;;;;5.32;2.63;;;16.20;99.90;;;;;;5043534;28;20060;-60
2023/05/02 11:40:21;;;;;;;6.00;2.50;;;16.30;99.90;;;;;;5018963;28;20052;-61
2023/05/02 11:42:49;;;;;;;4.80;2.58;;;16.50;99.90;;;;;;5030664;28;20053;-62
2023/05/02 11:45:17;;;;;;;5.95;2.30;;;16.50;99.90;;;;;;5030628;28;20046;-61
2023/05/02 11:47:46;;;;;;;5.18;2.83;;;16.60;99.90;;;;;;5035100;28;20053;-61
2023/05/02 11:50:15;;;;;;;5.90;2.75;;;16.90;99.90;;;;;;5049429;28;20048;-60
2023/05/02 11:52:44;;;;;;;6.68;2.63;;;16.90;99.90;;;;;;5043723;28;20049;-61
2023/05/02 11:55:14;;;;;;;9.10;3.00;;;17.10;99.90;;;;;;5024563;28;20408;-61
2023/05/02 11:57:42;;;;;;;4.20;2.40;;;17.60;99.90;;;;;;5017919;28;20052;-62
2023/05/02 12:00:11;;;;;;;8.05;3.03;;;17.60;99.90;;;;;;5050189;28;20045;-62
2023/05/02 12:02:43;;;;;;;5.78;2.50;;;17.80;99.90;;;;;;5050124;28;20045;-62
2023/05/02 12:05:12;;;;;;;3.40;2.05;;;18.10;99.90;;;;;;5030296;28;20045;-61
2023/05/02 12:07:49;;;;;;;4.60;2.33;;;18.30;99.90;;;;;;5049726;28;20045;-63
2023/05/02 12:10:17;;;;;;;6.65;2.60;;;18.50;99.90;;;;;;5027718;28;20036;-62
2023/05/02 12:12:44;;;;;;;8.02;2.20;;;19.00;99.90;;;;;;5029663;28;20060;-63
2023/05/02 12:15:12;;;;;;;7.72;2.65;;;19.00;99.90;;;;;;5050023;28;20057;-63
2023/05/02 12:17:43;;;;;;;4.97;2.08;;;18.90;99.90;;;;;;5049717;28;20041;-62
2023/05/02 12:20:15;;;;;;;5.03;1.65;;;19.40;99.90;;;;;;5021153;28;20049;-61
2023/05/02 12:22:43;;;;;;;6.32;2.03;;;19.60;99.70;;;;;;5029616;28;20045;-60
2023/05/02 12:25:11;;;;;;;3.60;1.98;;;19.90;98.20;;;;;;5037111;28;20041;-62
2023/05/02 12:27:39;;;;;;;4.38;2.25;;;20.10;97.40;;;;;;5034920;28;20064;-63
2023/05/02 12:30:07;;;;;;;3.85;1.70;;;20.00;96.60;;;;;;5049837;28;20048;-62
2023/05/02 12:32:35;;;;;;;4.72;2.00;;;19.40;97.10;;;;;;5048862;28;20041;-63
2023/05/02 12:35:04;;;;;;;4.30;2.10;;;19.30;97.40;;;;;;5011766;28;20504;-62
2023/05/02 12:37:32;;;;;;;4.82;2.05;;;19.10;98.00;;;;;;5011460;28;20052;-62
2023/05/02 12:39:59;;;;;;;4.93;2.35;;;18.70;97.80;;;;;;5013970;28;20063;-63
2023/05/02 12:42:33;;;;;;;5.45;1.73;;;18.30;98.70;;;;;;5041536;28;20052;-62
2023/05/02 12:45:00;;;;;;;4.03;2.28;;;18.10;99.90;;;;;;5038290;28;20786;-61
2023/05/02 12:47:44;;;;;;;2.65;1.40;;;17.90;99.40;;;;;;5033904;28;20041;-60
2023/05/02 12:50:12;;;;;;;5.60;2.00;;;17.80;99.80;;;;;;5014267;28;20045;-61
2023/05/02 12:52:58;;;;;;;2.50;1.40;;;17.50;99.90;;;;;;5047148;28;20502;-64
2023/05/02 12:55:27;;;;;;;4.85;1.63;;;17.50;99.90;;;;;;5036351;28;20049;-62
2023/05/02 12:58:14;;;;;;;6.93;1.88;;;17.50;99.90;;;;;;5036179;28;20049;-62
2023/05/02 13:00:42;;;;;;;5.60;2.00;;;17.40;99.90;;;;;;5031844;28;20053;-61
2023/05/02 13:03:13;;;;;;;4.25;1.98;;;17.40;99.90;;;;;;5032103;28;20128;-61